sensor_id;sensor_type;location;lat;lon;timestamp;pressure;altitude;pressure_sealevel;temperature;humidity
51227;BME280;42714;48.260;10.980;2023-11-19T00:03:36;971.0;;;6.8;100.0
51227;BME280;42714;48.260;10.980;2023-11-19T00:08:37;970.9;;;6.8;100.0
51227;BME280;42714;48.260;10.980;2023-11-19T00:13:38;970.9;;;6.9;100.0
51227;BME280;42714;48.260;10.980;2023-11-19T00:18:39;970.9;;;6.9;100.0
51227;BME280;42714;48.260;10.980;2023-11-19T00:23:40;970.9;;;7.0;100.0
51227;BME280;42714;48.260;10.980;2023-11-19T00:28:41;970.7;;;7.1;100.0
51227;BME280;42714;48.260;10.980;2023-11-19T00:33:42;970.7;;;7.1;100.0
51227;BME280;42714;48.260;10.980;2023-11-19T00:38:43;970.5;;;7.1;100.0
51227;BME280;42714;48.260;10.980;2023-11-19T00:43:44;970.4;;;7.2;100.0
51227;BME280;42714;48.260;10.980;2023-11-19T00:48:45;970.4;;;7.2;100.0
51227;BME280;42714;48.260;10.980;2023-11-19T00:53:46;970.4;;;7.3;100.0
51227;BME280;42714;48.260;10.980;2023-11-19T00:58:47;970.3;;;7.3;100.0
51227;BME280;42714;48.260;10.980;2023-11-19T01:03:48;970.3;;;7.4;100.0
51227;BME280;42714;48.260;10.980;2023-11-19T01:08:49;970.3;;;7.4;100.0
51227;BME280;42714;48.260;10.980;2023-11-19T01:13:50;970.3;;;7.6;100.0
51227;BME280;42714;48.260;10.980;2023-11-19T01:18:51;970.2;;;7.7;100.0
51227;BME280;42714;48.260;10.980;2023-11-19T01:23:52;970.1;;;7.7;100.0
51227;BME280;42714;48.260;10.980;2023-11-19T01:28:53;970.1;;;7.7;100.0
51227;BME280;42714;48.260;10.980;2023-11-19T01:33:54;970.2;;;7.8;100.0
51227;BME280;42714;48.260;10.980;2023-11-19T01:38:55;970.1;;;7.9;100.0
51227;BME280;42714;48.260;10.980;2023-11-19T01:43:56;970.0;;;8.0;100.0
51227;BME280;42714;48.260;10.980;2023-11-19T01:48:57;969.9;;;8.1;100.0
51227;BME280;42714;48.260;10.980;2023-11-19T01:53:58;969.9;;;8.1;100.0
51227;BME280;42714;48.260;10.980;2023-11-19T01:58:59;969.9;;;8.1;100.0
51227;BME280;42714;48.260;10.980;2023-11-19T02:04:00;969.8;;;8.1;100.0
51227;BME280;42714;48.260;10.980;2023-11-19T02:09:01;969.7;;;8.1;100.0
51227;BME280;42714;48.260;10.980;2023-11-19T02:14:02;969.6;;;8.0;100.0
51227;BME280;42714;48.260;10.980;2023-11-19T02:19:03;969.6;;;8.1;100.0
51227;BME280;42714;48.260;10.980;2023-11-19T02:29:05;969.5;;;8.2;100.0
51227;BME280;42714;48.260;10.980;2023-11-19T02:34:06;969.4;;;8.3;100.0
51227;BME280;42714;48.260;10.980;2023-11-19T02:39:07;969.3;;;8.3;100.0
51227;BME280;42714;48.260;10.980;2023-11-19T02:44:08;969.2;;;8.3;100.0
51227;BME280;42714;48.260;10.980;2023-11-19T02:49:09;969.1;;;8.4;100.0
51227;BME280;42714;48.260;10.980;2023-11-19T02:54:10;969.1;;;8.4;100.0
51227;BME280;42714;48.260;10.980;2023-11-19T02:59:11;969.1;;;8.4;100.0
51227;BME280;42714;48.260;10.980;2023-11-19T03:04:12;969.2;;;8.5;100.0
51227;BME280;42714;48.260;10.980;2023-11-19T03:09:13;969.1;;;8.6;100.0
51227;BME280;42714;48.260;10.980;2023-11-19T03:14:14;969.0;;;8.6;100.0
51227;BME280;42714;48.260;10.980;2023-11-19T03:19:15;969.0;;;8.6;100.0
51227;BME280;42714;48.260;10.980;2023-11-19T03:24:16;969.0;;;8.7;100.0
51227;BME280;42714;48.260;10.980;2023-11-19T03:29:17;969.0;;;8.8;100.0
51227;BME280;42714;48.260;10.980;2023-11-19T03:34:18;969.0;;;8.8;100.0
51227;BME280;42714;48.260;10.980;2023-11-19T03:39:19;968.9;;;8.8;100.0
51227;BME280;42714;48.260;10.980;2023-11-19T03:44:20;968.9;;;8.9;100.0
51227;BME280;42714;48.260;10.980;2023-11-19T03:49:21;969.0;;;8.9;100.0
51227;BME280;42714;48.260;10.980;2023-11-19T03:54:22;969.0;;;8.9;100.0
51227;BME280;42714;48.260;10.980;2023-11-19T03:59:23;969.0;;;8.9;100.0
51227;BME280;42714;48.260;10.980;2023-11-19T04:04:24;969.1;;;9.0;100.0
51227;BME280;42714;48.260;10.980;2023-11-19T04:09:25;969.1;;;9.0;100.0
51227;BME280;42714;48.260;10.980;2023-11-19T04:14:26;969.2;;;9.0;100.0
51227;BME280;42714;48.260;10.980;2023-11-19T04:19:27;969.1;;;9.1;100.0
51227;BME280;42714;48.260;10.980;2023-11-19T04:24:28;969.3;;;9.1;100.0
51227;BME280;42714;48.260;10.980;2023-11-19T04:29:29;969.2;;;9.1;100.0
51227;BME280;42714;48.260;10.980;2023-11-19T04:34:30;969.2;;;9.1;100.0
51227;BME280;42714;48.260;10.980;2023-11-19T04:39:31;969.2;;;9.2;100.0
51227;BME280;42714;48.260;10.980;2023-11-19T04:44:32;969.1;;;9.2;100.0
51227;BME280;42714;48.260;10.980;2023-11-19T04:49:33;969.2;;;9.2;100.0
51227;BME280;42714;48.260;10.980;2023-11-19T04:54:34;969.2;;;9.1;100.0
51227;BME280;42714;48.260;10.980;2023-11-19T04:59:35;969.3;;;9.1;100.0
51227;BME280;42714;48.260;10.980;2023-11-19T05:04:36;969.3;;;9.2;100.0
51227;BME280;42714;48.260;10.980;2023-11-19T05:09:37;969.3;;;9.2;100.0
51227;BME280;42714;48.260;10.980;2023-11-19T05:14:38;969.4;;;9.2;100.0
51227;BME280;42714;48.260;10.980;2023-11-19T05:19:39;969.3;;;9.3;100.0
51227;BME280;42714;48.260;10.980;2023-11-19T05:24:40;969.4;;;9.3;100.0
51227;BME280;42714;48.260;10.980;2023-11-19T05:29:41;969.5;;;9.3;100.0
51227;BME280;42714;48.260;10.980;2023-11-19T05:34:42;969.3;;;9.3;100.0
51227;BME280;42714;48.260;10.980;2023-11-19T05:39:44;969.4;;;9.3;100.0
51227;BME280;42714;48.260;10.980;2023-11-19T05:44:44;969.2;;;9.3;100.0
51227;BME280;42714;48.260;10.980;2023-11-19T05:49:45;969.3;;;9.3;100.0
51227;BME280;42714;48.260;10.980;2023-11-19T05:54:46;969.4;;;9.4;100.0
51227;BME280;42714;48.260;10.980;2023-11-19T05:59:47;969.4;;;9.4;100.0
51227;BME280;42714;48.260;10.980;2023-11-19T06:04:48;969.4;;;9.4;100.0
51227;BME280;42714;48.260;10.980;2023-11-19T06:09:49;969.5;;;9.4;100.0
51227;BME280;42714;48.260;10.980;2023-11-19T06:14:50;969.5;;;9.4;100.0
51227;BME280;42714;48.260;10.980;2023-11-19T06:19:51;969.4;;;9.5;100.0
51227;BME280;42714;48.260;10.980;2023-11-19T06:24:52;969.4;;;9.5;100.0
51227;BME280;42714;48.260;10.980;2023-11-19T06:29:53;969.4;;;9.5;100.0
51227;BME280;42714;48.260;10.980;2023-11-19T06:34:54;969.4;;;9.6;100.0
51227;BME280;42714;48.260;10.980;2023-11-19T06:39:55;969.5;;;9.6;100.0
51227;BME280;42714;48.260;10.980;2023-11-19T06:44:56;969.4;;;9.7;100.0
51227;BME280;42714;48.260;10.980;2023-11-19T06:49:57;969.5;;;9.7;100.0
51227;BME280;42714;48.260;10.980;2023-11-19T06:54:58;969.6;;;9.8;100.0
51227;BME280;42714;48.260;10.980;2023-11-19T06:59:59;969.6;;;9.9;100.0
51227;BME280;42714;48.260;10.980;2023-11-19T07:05:00;969.6;;;9.9;100.0
51227;BME280;42714;48.260;10.980;2023-11-19T07:10:01;969.6;;;10.0;100.0
51227;BME280;42714;48.260;10.980;2023-11-19T07:15:02;969.7;;;10.0;100.0
51227;BME280;42714;48.260;10.980;2023-11-19T07:25:04;969.8;;;10.2;100.0
51227;BME280;42714;48.260;10.980;2023-11-19T07:30:06;969.8;;;10.1;100.0
51227;BME280;42714;48.260;10.980;2023-11-19T07:35:07;970.0;;;10.2;100.0
51227;BME280;42714;48.260;10.980;2023-11-19T07:45:09;970.1;;;10.2;100.0
51227;BME280;42714;48.260;10.980;2023-11-19T07:50:09;970.0;;;10.3;100.0
51227;BME280;42714;48.260;10.980;2023-11-19T07:55:10;970.0;;;10.4;100.0
51227;BME280;42714;48.260;10.980;2023-11-19T08:05:12;970.0;;;10.6;100.0
51227;BME280;42714;48.260;10.980;2023-11-19T08:10:13;970.0;;;10.7;100.0
51227;BME280;42714;48.260;10.980;2023-11-19T08:15:14;970.0;;;10.9;100.0
51227;BME280;42714;48.260;10.980;2023-11-19T08:20:15;970.0;;;11.1;100.0
51227;BME280;42714;48.260;10.980;2023-11-19T08:25:16;970.0;;;11.2;100.0
51227;BME280;42714;48.260;10.980;2023-11-19T08:30:17;970.0;;;11.3;100.0
51227;BME280;42714;48.260;10.980;2023-11-19T08:35:18;970.0;;;11.4;100.0
51227;BME280;42714;48.260;10.980;2023-11-19T08:40:19;970.0;;;11.3;100.0
51227;BME280;42714;48.260;10.980;2023-11-19T08:45:20;970.0;;;11.3;100.0
51227;BME280;42714;48.260;10.980;2023-11-19T08:50:21;970.0;;;11.4;100.0
51227;BME280;42714;48.260;10.980;2023-11-19T08:55:22;970.0;;;11.4;100.0
51227;BME280;42714;48.260;10.980;2023-11-19T09:00:23;970.0;;;11.6;100.0
51227;BME280;42714;48.260;10.980;2023-11-19T09:05:24;969.9;;;11.5;100.0
51227;BME280;42714;48.260;10.980;2023-11-19T09:10:25;970.0;;;11.6;100.0
51227;BME280;42714;48.260;10.980;2023-11-19T09:15:26;970.0;;;11.4;100.0
51227;BME280;42714;48.260;10.980;2023-11-19T09:20:27;970.0;;;11.4;100.0
51227;BME280;42714;48.260;10.980;2023-11-19T09:25:28;970.1;;;11.4;100.0
51227;BME280;42714;48.260;10.980;2023-11-19T09:30:29;970.2;;;11.7;100.0
51227;BME280;42714;48.260;10.980;2023-11-19T09:35:30;970.1;;;12.0;100.0
51227;BME280;42714;48.260;10.980;2023-11-19T09:40:31;969.9;;;12.2;100.0
51227;BME280;42714;48.260;10.980;2023-11-19T09:45:35;969.9;;;12.5;100.0
51227;BME280;42714;48.260;10.980;2023-11-19T09:50:33;969.9;;;12.7;100.0
51227;BME280;42714;48.260;10.980;2023-11-19T09:55:34;969.7;;;13.2;100.0
51227;BME280;42714;48.260;10.980;2023-11-19T10:00:35;969.7;;;13.3;100.0
51227;BME280;42714;48.260;10.980;2023-11-19T10:05:36;969.7;;;13.4;100.0
51227;BME280;42714;48.260;10.980;2023-11-19T10:10:37;969.6;;;13.2;100.0
51227;BME280;42714;48.260;10.980;2023-11-19T10:15:38;969.7;;;13.2;100.0
51227;BME280;42714;48.260;10.980;2023-11-19T10:20:40;969.6;;;13.3;100.0
51227;BME280;42714;48.260;10.980;2023-11-19T10:25:40;969.6;;;13.4;100.0
51227;BME280;42714;48.260;10.980;2023-11-19T10:30:41;969.6;;;13.4;100.0
51227;BME280;42714;48.260;10.980;2023-11-19T10:40:43;969.3;;;14.0;100.0
51227;BME280;42714;48.260;10.980;2023-11-19T10:45:44;969.2;;;14.1;100.0
51227;BME280;42714;48.260;10.980;2023-11-19T10:50:46;969.2;;;14.2;100.0
51227;BME280;42714;48.260;10.980;2023-11-19T10:55:47;969.3;;;14.1;100.0
51227;BME280;42714;48.260;10.980;2023-11-19T11:00:48;969.3;;;14.1;100.0
51227;BME280;42714;48.260;10.980;2023-11-19T11:05:49;969.2;;;14.3;100.0
51227;BME280;42714;48.260;10.980;2023-11-19T11:15:51;969.1;;;14.9;100.0
51227;BME280;42714;48.260;10.980;2023-11-19T11:20:52;969.0;;;15.0;100.0
51227;BME280;42714;48.260;10.980;2023-11-19T11:26:40;968.9;;;15.9;100.0
51227;BME280;42714;48.260;10.980;2023-11-19T11:30:59;968.9;;;17.1;100.0
51227;BME280;42714;48.260;10.980;2023-11-19T11:35:57;968.9;;;18.3;100.0
51227;BME280;42714;48.260;10.980;2023-11-19T11:41:14;968.8;;;17.9;100.0
51227;BME280;42714;48.260;10.980;2023-11-19T11:45:56;968.7;;;17.4;100.0
51227;BME280;42714;48.260;10.980;2023-11-19T11:50:57;968.6;;;18.4;100.0
51227;BME280;42714;48.260;10.980;2023-11-19T11:55:58;968.7;;;18.6;100.0
51227;BME280;42714;48.260;10.980;2023-11-19T12:01:01;968.8;;;17.5;100.0
51227;BME280;42714;48.260;10.980;2023-11-19T12:06:00;968.8;;;16.9;100.0
51227;BME280;42714;48.260;10.980;2023-11-19T12:11:01;968.7;;;18.3;100.0
51227;BME280;42714;48.260;10.980;2023-11-19T12:21:03;968.6;;;18.1;100.0
51227;BME280;42714;48.260;10.980;2023-11-19T12:26:04;968.6;;;17.1;100.0
51227;BME280;42714;48.260;10.980;2023-11-19T12:31:07;968.7;;;16.3;100.0
51227;BME280;42714;48.260;10.980;2023-11-19T12:41:08;968.6;;;16.0;100.0
51227;BME280;42714;48.260;10.980;2023-11-19T12:46:18;968.5;;;15.4;100.0
51227;BME280;42714;48.260;10.980;2023-11-19T12:51:09;968.5;;;15.0;100.0
51227;BME280;42714;48.260;10.980;2023-11-19T12:56:10;968.4;;;14.8;100.0
51227;BME280;42714;48.260;10.980;2023-11-19T13:01:15;968.4;;;14.6;100.0
51227;BME280;42714;48.260;10.980;2023-11-19T13:06:13;968.3;;;14.4;100.0
51227;BME280;42714;48.260;10.980;2023-11-19T13:11:14;968.2;;;14.4;100.0
51227;BME280;42714;48.260;10.980;2023-11-19T13:16:14;968.3;;;14.4;100.0
51227;BME280;42714;48.260;10.980;2023-11-19T13:21:15;968.3;;;14.5;100.0
51227;BME280;42714;48.260;10.980;2023-11-19T13:26:17;968.3;;;14.5;100.0
51227;BME280;42714;48.260;10.980;2023-11-19T13:31:17;968.2;;;14.4;100.0
51227;BME280;42714;48.260;10.980;2023-11-19T13:36:18;968.1;;;14.4;100.0
51227;BME280;42714;48.260;10.980;2023-11-19T13:41:20;968.0;;;14.5;100.0
51227;BME280;42714;48.260;10.980;2023-11-19T13:46:20;967.8;;;14.9;100.0
51227;BME280;42714;48.260;10.980;2023-11-19T13:51:21;967.7;;;15.6;100.0
51227;BME280;42714;48.260;10.980;2023-11-19T13:56:22;967.5;;;15.9;100.0
51227;BME280;42714;48.260;10.980;2023-11-19T14:01:25;967.5;;;16.2;100.0
51227;BME280;42714;48.260;10.980;2023-11-19T14:06:24;967.5;;;15.9;100.0
51227;BME280;42714;48.260;10.980;2023-11-19T14:11:25;967.5;;;15.6;100.0
51227;BME280;42714;48.260;10.980;2023-11-19T14:16:27;967.5;;;15.9;100.0
51227;BME280;42714;48.260;10.980;2023-11-19T14:21:27;967.5;;;15.9;100.0
51227;BME280;42714;48.260;10.980;2023-11-19T14:26:28;967.5;;;16.1;100.0
51227;BME280;42714;48.260;10.980;2023-11-19T14:31:29;967.6;;;16.3;100.0
51227;BME280;42714;48.260;10.980;2023-11-19T14:36:30;967.5;;;16.0;100.0
51227;BME280;42714;48.260;10.980;2023-11-19T14:41:31;967.7;;;15.3;100.0
51227;BME280;42714;48.260;10.980;2023-11-19T14:46:32;967.6;;;14.7;100.0
51227;BME280;42714;48.260;10.980;2023-11-19T14:51:35;967.6;;;14.0;100.0
51227;BME280;42714;48.260;10.980;2023-11-19T14:56:35;967.6;;;13.8;100.0
51227;BME280;42714;48.260;10.980;2023-11-19T15:01:36;967.7;;;13.5;100.0
51227;BME280;42714;48.260;10.980;2023-11-19T15:06:37;967.8;;;13.1;100.0
51227;BME280;42714;48.260;10.980;2023-11-19T15:11:38;967.7;;;12.9;100.0
51227;BME280;42714;48.260;10.980;2023-11-19T15:16:39;967.7;;;12.7;100.0
51227;BME280;42714;48.260;10.980;2023-11-19T15:21:40;967.7;;;12.6;100.0
51227;BME280;42714;48.260;10.980;2023-11-19T15:26:41;967.8;;;12.4;100.0
51227;BME280;42714;48.260;10.980;2023-11-19T15:31:42;967.8;;;12.2;100.0
51227;BME280;42714;48.260;10.980;2023-11-19T15:36:43;968.0;;;12.1;100.0
51227;BME280;42714;48.260;10.980;2023-11-19T15:41:44;968.0;;;12.0;100.0
51227;BME280;42714;48.260;10.980;2023-11-19T15:46:45;968.0;;;12.0;100.0
51227;BME280;42714;48.260;10.980;2023-11-19T15:51:46;968.0;;;12.0;100.0
51227;BME280;42714;48.260;10.980;2023-11-19T15:56:47;968.1;;;11.9;100.0
51227;BME280;42714;48.260;10.980;2023-11-19T16:01:48;968.1;;;11.8;100.0
51227;BME280;42714;48.260;10.980;2023-11-19T16:06:49;968.1;;;11.8;100.0
51227;BME280;42714;48.260;10.980;2023-11-19T16:11:50;968.2;;;11.6;100.0
51227;BME280;42714;48.260;10.980;2023-11-19T16:16:51;968.1;;;11.6;100.0
51227;BME280;42714;48.260;10.980;2023-11-19T16:21:52;968.2;;;11.6;100.0
51227;BME280;42714;48.260;10.980;2023-11-19T16:26:53;968.0;;;11.5;100.0
51227;BME280;42714;48.260;10.980;2023-11-19T16:31:54;968.1;;;11.5;100.0
51227;BME280;42714;48.260;10.980;2023-11-19T16:36:55;968.1;;;11.4;100.0
51227;BME280;42714;48.260;10.980;2023-11-19T16:41:56;968.1;;;11.5;100.0
51227;BME280;42714;48.260;10.980;2023-11-19T16:46:57;968.2;;;11.5;100.0
51227;BME280;42714;48.260;10.980;2023-11-19T16:51:58;968.2;;;11.5;100.0
51227;BME280;42714;48.260;10.980;2023-11-19T16:56:59;968.2;;;11.5;100.0
51227;BME280;42714;48.260;10.980;2023-11-19T17:02:00;968.0;;;11.5;100.0
51227;BME280;42714;48.260;10.980;2023-11-19T17:07:01;968.3;;;11.4;100.0
51227;BME280;42714;48.260;10.980;2023-11-19T17:12:02;968.3;;;11.4;100.0
51227;BME280;42714;48.260;10.980;2023-11-19T17:17:03;968.3;;;11.2;100.0
51227;BME280;42714;48.260;10.980;2023-11-19T17:22:04;968.5;;;11.3;100.0
51227;BME280;42714;48.260;10.980;2023-11-19T17:27:05;968.5;;;11.3;100.0
51227;BME280;42714;48.260;10.980;2023-11-19T17:32:06;968.6;;;11.4;100.0
51227;BME280;42714;48.260;10.980;2023-11-19T17:37:07;968.5;;;11.2;100.0
51227;BME280;42714;48.260;10.980;2023-11-19T17:42:08;968.5;;;11.1;100.0
51227;BME280;42714;48.260;10.980;2023-11-19T17:47:09;968.4;;;11.2;100.0
51227;BME280;42714;48.260;10.980;2023-11-19T17:52:10;968.5;;;11.2;100.0
51227;BME280;42714;48.260;10.980;2023-11-19T17:57:11;968.6;;;11.1;100.0
51227;BME280;42714;48.260;10.980;2023-11-19T18:02:12;968.6;;;11.0;100.0
51227;BME280;42714;48.260;10.980;2023-11-19T18:07:13;968.6;;;10.9;100.0
51227;BME280;42714;48.260;10.980;2023-11-19T18:12:14;968.6;;;10.8;100.0
51227;BME280;42714;48.260;10.980;2023-11-19T18:17:15;968.7;;;10.9;100.0
51227;BME280;42714;48.260;10.980;2023-11-19T18:22:16;968.7;;;10.8;100.0
51227;BME280;42714;48.260;10.980;2023-11-19T18:27:17;968.6;;;10.8;100.0
51227;BME280;42714;48.260;10.980;2023-11-19T18:32:18;968.7;;;10.8;100.0
51227;BME280;42714;48.260;10.980;2023-11-19T18:37:19;968.7;;;10.8;100.0
51227;BME280;42714;48.260;10.980;2023-11-19T18:42:20;968.7;;;10.8;100.0
51227;BME280;42714;48.260;10.980;2023-11-19T18:47:21;968.8;;;10.7;100.0
51227;BME280;42714;48.260;10.980;2023-11-19T18:52:22;968.8;;;10.7;100.0
51227;BME280;42714;48.260;10.980;2023-11-19T18:57:23;968.8;;;10.7;100.0
51227;BME280;42714;48.260;10.980;2023-11-19T19:02:24;968.8;;;10.6;100.0
51227;BME280;42714;48.260;10.980;2023-11-19T19:07:25;968.8;;;10.6;100.0
51227;BME280;42714;48.260;10.980;2023-11-19T19:12:26;968.8;;;10.5;100.0
51227;BME280;42714;48.260;10.980;2023-11-19T19:17:27;968.8;;;10.5;100.0
51227;BME280;42714;48.260;10.980;2023-11-19T19:22:28;968.9;;;10.4;100.0
51227;BME280;42714;48.260;10.980;2023-11-19T19:27:29;968.9;;;10.4;100.0
51227;BME280;42714;48.260;10.980;2023-11-19T19:32:30;968.9;;;10.3;100.0
51227;BME280;42714;48.260;10.980;2023-11-19T19:37:31;969.0;;;10.2;100.0
51227;BME280;42714;48.260;10.980;2023-11-19T19:42:32;969.0;;;10.2;100.0
51227;BME280;42714;48.260;10.980;2023-11-19T19:47:33;968.9;;;10.1;100.0
51227;BME280;42714;48.260;10.980;2023-11-19T19:52:34;968.8;;;10.1;100.0
51227;BME280;42714;48.260;10.980;2023-11-19T19:57:35;968.8;;;10.1;100.0
51227;BME280;42714;48.260;10.980;2023-11-19T20:02:36;968.9;;;10.0;100.0
51227;BME280;42714;48.260;10.980;2023-11-19T20:07:38;968.8;;;10.0;100.0
51227;BME280;42714;48.260;10.980;2023-11-19T20:12:38;968.9;;;9.9;100.0
51227;BME280;42714;48.260;10.980;2023-11-19T20:17:39;968.9;;;10.0;100.0
51227;BME280;42714;48.260;10.980;2023-11-19T20:22:40;968.9;;;10.0;100.0
51227;BME280;42714;48.260;10.980;2023-11-19T20:27:41;969.0;;;9.9;100.0
51227;BME280;42714;48.260;10.980;2023-11-19T20:32:42;969.1;;;9.9;100.0
51227;BME280;42714;48.260;10.980;2023-11-19T20:37:43;969.1;;;10.0;100.0
51227;BME280;42714;48.260;10.980;2023-11-19T20:42:44;969.1;;;10.0;100.0
51227;BME280;42714;48.260;10.980;2023-11-19T20:47:45;969.2;;;10.1;100.0
51227;BME280;42714;48.260;10.980;2023-11-19T20:52:46;969.1;;;10.1;100.0
51227;BME280;42714;48.260;10.980;2023-11-19T20:57:47;969.2;;;10.1;100.0
51227;BME280;42714;48.260;10.980;2023-11-19T21:02:48;969.1;;;10.2;100.0
51227;BME280;42714;48.260;10.980;2023-11-19T21:07:49;969.2;;;10.3;100.0
51227;BME280;42714;48.260;10.980;2023-11-19T21:12:50;969.1;;;10.2;100.0
51227;BME280;42714;48.260;10.980;2023-11-19T21:17:51;969.0;;;10.2;100.0
51227;BME280;42714;48.260;10.980;2023-11-19T21:22:52;969.1;;;10.3;100.0
51227;BME280;42714;48.260;10.980;2023-11-19T21:27:53;969.1;;;10.3;100.0
51227;BME280;42714;48.260;10.980;2023-11-19T21:32:54;969.2;;;10.2;100.0
51227;BME280;42714;48.260;10.980;2023-11-19T21:37:55;969.1;;;10.1;100.0
51227;BME280;42714;48.260;10.980;2023-11-19T21:42:56;969.2;;;10.1;100.0
51227;BME280;42714;48.260;10.980;2023-11-19T21:47:57;969.3;;;10.1;100.0
51227;BME280;42714;48.260;10.980;2023-11-19T21:52:58;969.3;;;10.1;100.0
51227;BME280;42714;48.260;10.980;2023-11-19T21:57:59;969.3;;;10.1;100.0
51227;BME280;42714;48.260;10.980;2023-11-19T22:03:00;969.4;;;10.1;100.0
51227;BME280;42714;48.260;10.980;2023-11-19T22:08:01;969.3;;;10.2;100.0
51227;BME280;42714;48.260;10.980;2023-11-19T22:13:02;969.4;;;10.1;100.0
51227;BME280;42714;48.260;10.980;2023-11-19T22:18:03;969.4;;;10.1;100.0
51227;BME280;42714;48.260;10.980;2023-11-19T22:23:04;969.5;;;10.1;100.0
51227;BME280;42714;48.260;10.980;2023-11-19T22:28:05;969.4;;;10.1;100.0
51227;BME280;42714;48.260;10.980;2023-11-19T22:33:06;969.5;;;10.1;100.0
51227;BME280;42714;48.260;10.980;2023-11-19T22:38:07;969.5;;;10.0;100.0
51227;BME280;42714;48.260;10.980;2023-11-19T22:43:08;969.4;;;10.1;100.0
51227;BME280;42714;48.260;10.980;2023-11-19T22:48:09;969.4;;;10.3;100.0
51227;BME280;42714;48.260;10.980;2023-11-19T22:53:10;969.4;;;10.4;100.0
51227;BME280;42714;48.260;10.980;2023-11-19T22:58:11;969.4;;;10.5;100.0
51227;BME280;42714;48.260;10.980;2023-11-19T23:03:12;969.3;;;10.4;100.0
51227;BME280;42714;48.260;10.980;2023-11-19T23:08:13;969.2;;;10.4;100.0
51227;BME280;42714;48.260;10.980;2023-11-19T23:13:14;969.3;;;10.4;100.0
51227;BME280;42714;48.260;10.980;2023-11-19T23:18:15;969.4;;;10.2;100.0
51227;BME280;42714;48.260;10.980;2023-11-19T23:23:16;969.5;;;10.2;100.0
51227;BME280;42714;48.260;10.980;2023-11-19T23:28:17;969.6;;;10.2;100.0
51227;BME280;42714;48.260;10.980;2023-11-19T23:33:18;969.6;;;10.3;100.0
51227;BME280;42714;48.260;10.980;2023-11-19T23:38:19;969.6;;;10.4;100.0
51227;BME280;42714;48.260;10.980;2023-11-19T23:43:20;969.6;;;10.6;100.0
51227;BME280;42714;48.260;10.980;2023-11-19T23:48:21;969.6;;;10.6;100.0
51227;BME280;42714;48.260;10.980;2023-11-19T23:53:22;969.5;;;10.4;100.0
51227;BME280;42714;48.260;10.980;2023-11-19T23:58:23;969.4;;;10.1;100.0
